Time;durP1;ratioP1;P1;durP2;ratioP2;P2;SDS_P1;SDS_P2;PMS_P1;PMS_P2;Temp;Humidity;BMP_temperature;BMP_pressure;BME280_temperature;BME280_humidity;BME280_pressure;Samples;Min_cycle;Max_cycle;Signal;HPM_P1;HPM_P2
2022/12/21 00:01:31;;;;;;;;;14.25;14.25;;;;;11.87;92.92;100289.41;5033763;28;48325;-70
2022/12/21 00:04:01;;;;;;;;;13.00;13.00;;;;;11.84;93.40;100285.13;5037861;28;45482;-71
2022/12/21 00:06:29;;;;;;;;;18.00;16.50;;;;;11.79;93.30;100288.00;5026373;28;45418;-71
2022/12/21 00:08:56;;;;;;;;;13.25;13.25;;;;;11.83;93.65;100302.72;5017698;28;45390;-69
2022/12/21 00:11:24;;;;;;;;;14.00;14.00;;;;;11.80;93.45;100300.25;5017208;28;46143;-73
2022/12/21 00:13:50;;;;;;;;;11.25;11.25;;;;;11.83;93.59;100296.59;5015042;28;45326;-67
2022/12/21 00:16:19;;;;;;;;;13.25;13.25;;;;;11.83;93.89;100288.69;5014817;28;45491;-68
2022/12/21 00:18:45;;;;;;;;;13.50;13.50;;;;;11.85;93.87;100292.09;5017512;28;45376;-70
2022/12/21 00:21:17;;;;;;;;;12.25;12.25;;;;;11.87;93.76;100307.84;5034099;28;47283;-70
2022/12/21 00:23:45;;;;;;;;;12.50;12.50;;;;;11.86;93.58;100300.88;5033968;28;45470;-69
2022/12/21 00:26:12;;;;;;;;;12.00;12.00;;;;;11.88;93.54;100304.28;5034805;28;45238;-69
2022/12/21 00:28:38;;;;;;;;;13.75;13.75;;;;;11.89;93.35;100306.00;4996992;28;45396;-72
2022/12/21 00:31:12;;;;;;;;;12.75;12.75;;;;;11.84;93.53;100291.25;5015364;28;46271;-70
2022/12/21 00:33:39;;;;;;;;;12.25;12.25;;;;;11.90;93.37;100291.88;5014850;28;45402;-69
2022/12/21 00:36:05;;;;;;;;;18.00;15.75;;;;;11.91;93.13;100293.59;5014221;28;45344;-69
2022/12/21 00:38:33;;;;;;;;;10.00;10.00;;;;;11.93;93.49;100292.56;5024460;28;45517;-70
2022/12/21 00:41:04;;;;;;;;;11.25;11.25;;;;;11.90;93.25;100276.06;5013639;28;46569;-69
2022/12/21 00:43:31;;;;;;;;;12.00;12.00;;;;;11.92;93.04;100274.22;5043909;28;45258;-69
2022/12/21 00:45:57;;;;;;;;;14.00;14.00;;;;;11.91;92.97;100281.25;5016200;28;45390;-70
2022/12/21 00:48:24;;;;;;;;;12.00;12.00;;;;;11.94;93.14;100290.78;5054526;28;45614;-70
2022/12/21 00:50:49;;;;;;;;;12.50;12.50;;;;;11.95;93.47;100288.06;5053722;28;46425;-68
2022/12/21 00:53:15;;;;;;;;;10.25;10.25;;;;;11.96;93.45;100295.03;5054519;28;45421;-69
2022/12/21 00:55:41;;;;;;;;;12.25;11.50;;;;;11.97;93.35;100285.38;5056763;28;45387;-69
2022/12/21 00:58:07;;;;;;;;;13.00;13.00;;;;;11.97;93.63;100294.09;5059290;28;45159;-70
2022/12/21 01:00:32;;;;;;;;;10.75;10.75;;;;;11.96;93.68;100302.13;5038296;28;45500;-70
2022/12/21 01:02:57;;;;;;;;;15.75;15.75;;;;;11.94;93.64;100291.63;5015690;28;45611;-72
2022/12/21 01:05:23;;;;;;;;;13.00;13.00;;;;;11.94;93.82;100301.34;5015269;28;45428;-69
2022/12/21 01:07:48;;;;;;;;;11.75;11.75;;;;;11.95;94.04;100308.31;5018406;28;45341;-70
2022/12/21 01:10:14;;;;;;;;;14.00;14.00;;;;;11.92;94.48;100311.09;5017584;28;45366;-69
2022/12/21 01:12:40;;;;;;;;;12.00;11.25;;;;;11.92;94.35;100311.09;5017684;28;45393;-70
2022/12/21 01:15:06;;;;;;;;;11.75;11.75;;;;;11.92;94.65;100309.31;5017399;28;45418;-70
2022/12/21 01:17:32;;;;;;;;;13.00;13.00;;;;;11.92;94.56;100313.75;5018085;28;45259;-71
2022/12/21 01:19:57;;;;;;;;;13.50;13.50;;;;;11.90;94.66;100303.25;5033517;28;47361;-70
2022/12/21 01:22:22;;;;;;;;;11.75;11.75;;;;;11.84;95.05;100301.81;5017686;28;45313;-73
2022/12/21 01:24:48;;;;;;;;;11.25;11.25;;;;;11.81;95.27;100301.94;5017566;28;45329;-71
2022/12/21 01:27:13;;;;;;;;;11.25;11.25;;;;;11.89;94.90;100319.16;5016263;28;45576;-70
2022/12/21 01:29:39;;;;;;;;;11.50;11.50;;;;;11.90;95.09;100323.50;5017166;28;45423;-71
2022/12/21 01:32:04;;;;;;;;;12.25;12.25;;;;;11.88;95.31;100320.94;5017233;28;45325;-70
2022/12/21 01:34:30;;;;;;;;;11.00;11.00;;;;;11.83;94.76;100310.63;5017640;28;45336;-70
2022/12/21 01:36:55;;;;;;;;;10.00;10.00;;;;;11.88;94.92;100323.56;5017438;28;45351;-69
2022/12/21 01:39:20;;;;;;;;;12.25;12.25;;;;;11.88;95.18;100320.94;5016895;28;45290;-70
2022/12/21 01:41:46;;;;;;;;;11.25;11.25;;;;;11.88;94.79;100317.47;5017245;28;45352;-68
2022/12/21 01:44:45;;;;;;;;;9.25;9.25;;;;;11.89;95.03;100317.38;5017058;28;45284;-69
2022/12/21 01:47:19;;;;;;;;;9.00;9.00;;;;;11.88;94.50;100320.94;5017515;28;45466;-70
2022/12/21 01:49:50;;;;;;;;;11.00;11.00;;;;;11.89;94.75;100325.28;5016966;28;45250;-69
2022/12/21 01:52:17;;;;;;;;;11.25;11.00;;;;;11.91;94.58;100336.59;5018022;28;45414;-68
2022/12/21 01:54:49;;;;;;;;;10.25;10.25;;;;;11.91;94.69;100335.75;5017286;28;45364;-70
2022/12/21 01:57:16;;;;;;;;;11.00;11.00;;;;;11.94;94.64;100340.88;5017139;28;45385;-68
2022/12/21 01:59:45;;;;;;;;;10.25;10.25;;;;;11.91;94.53;100327.84;5016892;28;45432;-69
2022/12/21 02:02:17;;;;;;;;;7.25;7.25;;;;;11.96;94.46;100331.09;5016381;28;45290;-69
2022/12/21 02:04:43;;;;;;;;;9.00;9.00;;;;;11.95;93.90;100332.03;5016889;28;45293;-68
2022/12/21 02:07:09;;;;;;;;;9.50;9.50;;;;;11.97;93.90;100338.91;5016611;28;45324;-69
2022/12/21 02:09:36;;;;;;;;;8.00;8.00;;;;;11.98;93.95;100351.16;5017502;28;45460;-69
2022/12/21 02:12:04;;;;;;;;;9.75;9.75;;;;;11.87;93.62;100329.78;5019231;28;45348;-70
2022/12/21 02:14:35;;;;;;;;;15.75;15.75;;;;;11.95;93.27;100361.03;5015850;28;45568;-69
2022/12/21 02:17:31;;;;;;;;;9.50;9.50;;;;;11.95;93.37;100363.66;5017367;28;45353;-69
2022/12/21 02:20:24;;;;;;;;;9.00;9.00;;;;;11.90;92.46;100363.03;5017337;28;45432;-70
2022/12/21 02:23:08;;;;;;;;;6.25;6.25;;;;;11.84;91.42;100372.09;5017496;28;45258;-69
2022/12/21 02:25:41;;;;;;;;;5.00;5.00;;;;;11.74;89.99;100370.84;5017257;28;45349;-69
2022/12/21 02:28:44;;;;;;;;;5.25;5.25;;;;;11.64;89.63;100366.00;5017344;28;45506;-68
2022/12/21 02:31:24;;;;;;;;;4.25;4.25;;;;;11.55;89.52;100366.44;5016020;28;46174;-70
2022/12/21 02:34:02;;;;;;;;;5.50;5.50;;;;;11.46;89.31;100357.19;5016260;28;45373;-68
2022/12/21 02:36:39;;;;;;;;;3.00;3.00;;;;;11.39;89.23;100350.50;5017011;28;45333;-69
2022/12/21 02:39:19;;;;;;;;;5.50;5.50;;;;;11.31;89.05;100355.28;5017904;28;45284;-69
2022/12/21 02:42:08;;;;;;;;;3.00;3.00;;;;;11.24;89.39;100355.56;5032005;28;46053;-69
2022/12/21 02:44:47;;;;;;;;;4.00;4.00;;;;;11.18;89.14;100352.41;5015966;28;46416;-68
2022/12/21 02:47:29;;;;;;;;;4.75;4.75;;;;;11.10;89.12;100355.38;5016745;28;45356;-69
2022/12/21 02:50:02;;;;;;;;;3.25;3.25;;;;;11.04;89.58;100360.91;5000567;28;45311;-70
2022/12/21 02:52:48;;;;;;;;;5.00;5.00;;;;;10.97;89.33;100360.31;5016236;28;46444;-68
2022/12/21 02:55:14;;;;;;;;;5.00;5.00;;;;;10.89;89.32;100358.06;5016872;28;45368;-68
2022/12/21 02:57:44;;;;;;;;;4.50;4.50;;;;;10.82;90.04;100359.25;5018045;28;45320;-69
2022/12/21 03:00:16;;;;;;;;;3.75;3.75;;;;;10.80;89.24;100364.56;5016794;28;45325;-67
2022/12/21 03:06:05;;;;;;;;;4.00;4.00;;;;;10.71;89.76;100374.66;5015627;28;45341;-68
2022/12/21 03:08:46;;;;;;;;;5.00;5.00;;;;;10.65;89.55;100370.50;5015773;28;45241;-69
2022/12/21 03:11:12;;;;;;;;;3.00;3.00;;;;;10.62;89.79;100383.81;5015984;28;45402;-69
2022/12/21 03:13:58;;;;;;;;;1.50;1.50;;;;;10.57;89.07;100377.88;5015328;28;51614;-70
2022/12/21 03:16:36;;;;;;;;;2.50;2.50;;;;;10.50;88.82;100387.81;5015562;28;45403;-69
2022/12/21 03:19:18;;;;;;;;;2.00;2.00;;;;;10.44;88.80;100383.69;5015978;28;45246;-69
2022/12/21 03:22:01;;;;;;;;;1.25;1.25;;;;;10.39;88.98;100383.00;4999423;28;45340;-68
2022/12/21 03:24:38;;;;;;;;;2.00;2.00;;;;;10.41;88.35;100388.19;5016048;28;45357;-71
2022/12/21 03:27:10;;;;;;;;;1.25;1.25;;;;;10.38;88.60;100382.13;5016131;28;45428;-68
2022/12/21 03:29:43;;;;;;;;;2.50;2.50;;;;;10.32;88.90;100376.28;5015631;28;45429;-69
2022/12/21 03:32:18;;;;;;;;;1.50;1.50;;;;;10.32;88.53;100386.81;5015968;28;45347;-69
2022/12/21 03:34:48;;;;;;;;;2.00;2.00;;;;;10.30;88.03;100381.59;5015170;28;46526;-70
2022/12/21 03:37:31;;;;;;;;;1.25;1.25;;;;;10.26;88.26;100373.91;5013442;28;45447;-68
2022/12/21 03:40:06;;;;;;;;;1.00;1.00;;;;;10.24;88.33;100389.75;5014092;28;45472;-70
2022/12/21 03:42:35;;;;;;;;;1.25;1.25;;;;;10.18;88.41;100390.00;5015680;28;45325;-69
2022/12/21 03:45:11;;;;;;;;;1.75;1.75;;;;;10.17;88.06;100385.66;5016644;28;45293;-69
2022/12/21 03:47:45;;;;;;;;;1.00;1.00;;;;;10.16;88.50;100392.69;5016049;28;45238;-69
2022/12/21 03:50:18;;;;;;;;;0.75;0.75;;;;;10.17;88.59;100396.16;5015528;28;45443;-68
2022/12/21 03:53:03;;;;;;;;;4.00;4.00;;;;;10.18;88.41;100392.63;5016052;28;45340;-69
2022/12/21 03:55:32;;;;;;;;;1.75;1.75;;;;;10.18;89.15;100379.47;4998016;28;47377;-68
2022/12/21 03:57:58;;;;;;;;;1.75;1.75;;;;;10.22;88.33;100391.56;5015180;28;45324;-69
2022/12/21 04:00:26;;;;;;;;;0.00;0.00;;;;;10.21;88.97;100388.09;5015255;28;45238;-68
2022/12/21 04:02:59;;;;;;;;;1.00;1.00;;;;;10.24;87.79;100387.09;5015243;28;45469;-69
2022/12/21 04:05:30;;;;;;;;;1.25;1.25;;;;;10.21;87.80;100372.34;5015456;28;45437;-70
2022/12/21 04:07:56;;;;;;;;;1.50;1.50;;;;;10.25;87.81;100391.44;5014789;28;45359;-68
2022/12/21 04:10:23;;;;;;;;;1.75;1.75;;;;;10.23;87.95;100396.78;5015296;28;45251;-70
2022/12/21 04:12:48;;;;;;;;;1.75;1.75;;;;;10.22;88.19;100399.47;5031104;28;45286;-69
2022/12/21 04:15:20;;;;;;;;;1.00;1.00;;;;;10.22;87.93;100395.06;5014853;28;46153;-70
2022/12/21 04:17:48;;;;;;;;;1.75;1.75;;;;;10.21;87.82;100400.38;5015636;28;45271;-69
2022/12/21 04:20:20;;;;;;;;;1.75;1.75;;;;;10.20;87.80;100391.66;5015480;28;45238;-68
2022/12/21 04:28:20;;;;;;;;;2.00;2.00;;;;;10.20;87.23;100403.94;5014874;28;45476;-69
2022/12/21 04:30:46;;;;;;;;;1.00;1.00;;;;;10.20;87.64;100417.06;5017399;28;45338;-68
2022/12/21 04:33:14;;;;;;;;;1.00;1.00;;;;;10.20;87.63;100417.94;5020235;28;45410;-69
2022/12/21 04:37:30;;;;;;;;;0.75;0.75;;;;;10.19;87.12;100410.97;5019008;28;46595;-69
2022/12/21 04:38:27;;;;;;;;;1.75;1.75;;;;;10.12;86.96;100406.03;5018927;28;45281;-71
2022/12/21 04:40:54;;;;;;;;;1.50;1.50;;;;;10.20;86.90;100409.19;5017198;28;45253;-70
2022/12/21 04:43:20;;;;;;;;;2.00;2.00;;;;;10.21;86.95;100411.78;5018519;28;45455;-69
2022/12/21 04:45:45;;;;;;;;;1.00;1.00;;;;;10.04;86.59;100383.53;5018251;28;46266;-68
2022/12/21 04:48:11;;;;;;;;;2.00;2.00;;;;;10.21;86.26;100414.41;5016867;28;45783;-68
2022/12/21 04:50:39;;;;;;;;;0.75;0.75;;;;;10.17;86.28;100418.06;5017968;28;45324;-69
2022/12/21 04:53:05;;;;;;;;;1.00;1.00;;;;;10.20;86.01;100423.19;5018248;28;45292;-69
2022/12/21 04:55:30;;;;;;;;;2.00;2.00;;;;;10.19;86.14;100426.75;5017546;28;45390;-70
2022/12/21 04:57:55;;;;;;;;;1.75;1.75;;;;;10.17;86.29;100414.56;5017199;28;60255;-69
2022/12/21 05:00:21;;;;;;;;;1.25;1.25;;;;;10.19;85.97;100429.38;5017867;28;45352;-69
2022/12/21 05:02:46;;;;;;;;;1.00;1.00;;;;;10.18;86.05;100425.03;5019195;28;45306;-67
2022/12/21 05:05:12;;;;;;;;;2.00;2.00;;;;;10.20;86.55;100435.47;5017729;28;54260;-69
2022/12/21 05:07:37;;;;;;;;;2.50;2.50;;;;;10.15;86.16;100421.66;5017681;28;45195;-70
2022/12/21 05:10:03;;;;;;;;;1.25;1.25;;;;;10.18;86.07;100435.56;5017659;28;45190;-69
2022/12/21 05:12:28;;;;;;;;;2.75;2.75;;;;;10.17;85.86;100433.84;5017938;28;45416;-69
2022/12/21 05:14:54;;;;;;;;;2.25;2.25;;;;;10.16;86.07;100441.78;5017403;28;46166;-69
2022/12/21 05:17:19;;;;;;;;;2.50;2.50;;;;;10.17;86.14;100446.13;5017519;28;45244;-68
2022/12/21 05:19:46;;;;;;;;;2.75;2.75;;;;;10.13;86.05;100437.50;5018332;28;45628;-70
2022/12/21 05:22:16;;;;;;;;;2.75;2.75;;;;;10.11;86.27;100441.09;5017857;28;45464;-68
2022/12/21 05:24:41;;;;;;;;;2.50;2.50;;;;;10.07;86.15;100430.72;5017774;28;46247;-68
2022/12/21 05:27:07;;;;;;;;;2.50;2.50;;;;;10.04;85.47;100433.47;5018071;28;45355;-68
2022/12/21 05:29:32;;;;;;;;;2.00;2.00;;;;;10.02;85.82;100444.94;5032975;28;45270;-69
2022/12/21 05:31:57;;;;;;;;;2.00;2.00;;;;;9.96;85.60;100440.81;5017817;28;45313;-71
2022/12/21 05:34:23;;;;;;;;;3.00;3.00;;;;;9.91;85.65;100427.84;5000996;28;46020;-69
2022/12/21 05:36:48;;;;;;;;;2.75;2.75;;;;;9.91;86.10;100427.84;5018107;28;45321;-70
2022/12/21 05:39:13;;;;;;;;;2.75;2.75;;;;;9.91;85.92;100433.09;5019975;28;53258;-69
2022/12/21 05:41:39;;;;;;;;;2.00;2.00;;;;;9.88;85.39;100437.63;5017163;28;45578;-68
2022/12/21 05:44:04;;;;;;;;;1.75;1.75;;;;;9.85;84.77;100435.13;5016921;28;46099;-71
2022/12/21 05:46:29;;;;;;;;;2.00;2.00;;;;;9.81;84.97;100431.75;5017170;28;45951;-68
2022/12/21 05:48:55;;;;;;;;;1.25;1.25;;;;;9.75;84.98;100432.00;5018567;28;45370;-70
2022/12/21 05:51:20;;;;;;;;;2.75;2.75;;;;;9.76;85.38;100439.81;5019586;28;45485;-68
2022/12/21 05:53:45;;;;;;;;;2.00;2.00;;;;;9.71;85.20;100436.53;5018366;28;45444;-67
2022/12/21 05:56:11;;;;;;;;;1.25;1.25;;;;;9.70;85.22;100439.19;5017192;28;45358;-69
2022/12/21 05:58:37;;;;;;;;;6.00;6.00;;;;;9.63;85.46;100436.81;5017243;28;45408;-68
2022/12/21 06:01:04;;;;;;;;;2.00;2.00;;;;;9.63;85.09;100444.69;5017241;28;45609;-69
2022/12/21 06:03:29;;;;;;;;;2.00;2.00;;;;;9.61;85.24;100441.28;5018174;28;45353;-69
2022/12/21 06:06:06;;;;;;;;;0.75;0.75;;;;;9.58;85.32;100445.81;5018215;28;45372;-69
2022/12/21 06:08:32;;;;;;;;;2.75;2.75;;;;;9.50;85.08;100432.94;5016687;28;45257;-68
2022/12/21 06:11:03;;;;;;;;;4.00;4.00;;;;;9.52;85.46;100446.00;5017319;28;45761;-69
2022/12/21 06:13:29;;;;;;;;;3.00;3.00;;;;;9.49;85.88;100432.06;5017549;28;45396;-69
2022/12/21 06:15:54;;;;;;;;;3.00;3.00;;;;;9.48;85.34;100434.78;5018194;28;45369;-70
2022/12/21 06:18:19;;;;;;;;;1.75;1.75;;;;;9.45;85.35;100435.72;5016731;28;45420;-69
2022/12/21 06:20:51;;;;;;;;;2.00;2.00;;;;;9.44;85.13;100443.69;5017267;28;45459;-69
2022/12/21 06:23:17;;;;;;;;;2.00;2.00;;;;;9.42;85.43;100442.88;5016651;28;46996;-70
2022/12/21 06:25:42;;;;;;;;;1.00;1.00;;;;;9.37;85.32;100437.78;5016702;28;45400;-68
2022/12/21 06:28:07;;;;;;;;;6.75;6.75;;;;;9.35;85.67;100445.75;5016917;28;45402;-70
2022/12/21 06:30:33;;;;;;;;;5.00;5.00;;;;;9.37;85.91;100458.78;5017005;28;45616;-69
2022/12/21 06:32:58;;;;;;;;;3.75;3.75;;;;;9.29;85.88;100447.72;5016510;28;45974;-68
2022/12/21 06:35:23;;;;;;;;;4.00;4.00;;;;;9.35;85.80;100464.13;5016389;28;50423;-69
2022/12/21 06:37:49;;;;;;;;;2.75;2.75;;;;;9.37;86.30;100464.03;5016929;28;45358;-70
2022/12/21 06:40:14;;;;;;;;;2.00;2.00;;;;;9.34;86.06;100467.66;5017139;28;56857;-70
2022/12/21 06:42:39;;;;;;;;;7.50;7.50;;;;;9.33;86.10;100463.31;5016879;28;45736;-68
2022/12/21 06:45:06;;;;;;;;;5.25;5.25;;;;;9.31;86.51;100461.66;5016267;28;45297;-69
2022/12/21 06:47:31;;;;;;;;;4.50;4.50;;;;;9.33;86.19;100470.31;5016401;28;45241;-70
2022/12/21 06:49:56;;;;;;;;;10.25;10.25;;;;;9.24;86.38;100453.16;5016617;28;45151;-72
2022/12/21 06:52:22;;;;;;;;;4.00;4.00;;;;;9.30;86.56;100455.56;5016637;28;50011;-69
2022/12/21 06:54:47;;;;;;;;;5.00;5.00;;;;;9.27;86.36;100452.16;4998315;28;45259;-70
2022/12/21 06:57:13;;;;;;;;;5.25;5.25;;;;;9.28;86.55;100461.75;5017020;28;45330;-69
2022/12/21 06:59:38;;;;;;;;;5.50;5.50;;;;;9.26;86.68;100474.09;5017942;28;45262;-70
2022/12/21 07:02:03;;;;;;;;;4.50;4.50;;;;;9.26;86.65;100476.72;5018840;28;46054;-70
2022/12/21 07:04:29;;;;;;;;;8.00;8.00;;;;;9.26;86.64;100471.47;5018060;28;45548;-69
2022/12/21 07:06:54;;;;;;;;;6.75;6.75;;;;;9.24;86.78;100468.91;5017457;28;45213;-68
2022/12/21 07:09:20;;;;;;;;;5.00;5.00;;;;;9.24;86.60;100478.53;5017777;28;45344;-70
2022/12/21 07:11:46;;;;;;;;;9.25;9.25;;;;;9.24;86.75;100486.41;5016670;28;46300;-69
2022/12/21 07:14:12;;;;;;;;;6.25;6.25;;;;;9.24;86.96;100489.91;5015291;28;45418;-70
2022/12/21 07:16:37;;;;;;;;;6.00;6.00;;;;;9.18;86.59;100496.22;5016634;28;45375;-70
2022/12/21 07:19:02;;;;;;;;;5.00;5.00;;;;;9.18;86.38;100484.88;5017321;28;45306;-69
2022/12/21 07:21:28;;;;;;;;;7.00;7.00;;;;;9.16;86.61;100486.69;5017720;28;45315;-70
2022/12/21 07:23:54;;;;;;;;;5.50;5.50;;;;;9.05;86.14;100474.81;5033909;28;45490;-70
2022/12/21 07:26:22;;;;;;;;;5.50;5.50;;;;;9.09;86.56;100485.22;5016111;28;45341;-69
2022/12/21 07:28:48;;;;;;;;;6.75;6.75;;;;;9.08;86.42;100479.09;5016989;28;45542;-69
2022/12/21 07:31:18;;;;;;;;;6.75;6.75;;;;;9.08;86.59;100473.00;5015603;28;46406;-70
2022/12/21 07:33:44;;;;;;;;;7.00;7.00;;;;;9.01;86.79;100473.22;5015785;28;45316;-69
2022/12/21 07:36:10;;;;;;;;;9.00;9.00;;;;;9.03;86.45;100481.03;5015659;28;45326;-69
2022/12/21 07:38:37;;;;;;;;;14.50;14.50;;;;;9.07;86.56;100493.13;5016666;28;45636;-70
2022/12/21 07:41:06;;;;;;;;;13.50;13.50;;;;;9.08;86.85;100494.84;5028058;28;46263;-70
2022/12/21 07:43:31;;;;;;;;;8.50;8.50;;;;;9.06;86.54;100504.53;5028097;28;45276;-70
2022/12/21 07:45:57;;;;;;;;;7.00;7.00;;;;;9.01;86.33;100509.06;5000580;28;45398;-70
2022/12/21 07:48:22;;;;;;;;;11.50;11.50;;;;;9.00;85.97;100510.81;5039124;28;45471;-70
2022/12/21 07:50:52;;;;;;;;;9.00;9.00;;;;;8.98;85.93;100506.56;5034229;28;45355;-70
2022/12/21 07:53:17;;;;;;;;;13.00;13.00;;;;;8.98;86.21;100507.41;5035180;28;45395;-69
2022/12/21 07:55:43;;;;;;;;;11.50;11.50;;;;;8.96;86.12;100521.50;5035598;28;45207;-70
2022/12/21 07:58:09;;;;;;;;;9.50;9.50;;;;;8.95;86.25;100514.53;5019746;28;45261;-68
2022/12/21 08:00:35;;;;;;;;;13.75;13.75;;;;;8.94;86.41;100518.06;5034418;28;45592;-70
2022/12/21 08:03:00;;;;;;;;;10.50;10.00;;;;;8.90;86.31;100509.44;5001673;28;45249;-70
2022/12/21 08:05:26;;;;;;;;;9.75;9.75;;;;;8.86;86.80;100523.56;5034235;28;45392;-71
2022/12/21 08:07:52;;;;;;;;;5.75;5.75;;;;;8.93;86.52;100527.69;5038641;28;45327;-68
2022/12/21 08:10:17;;;;;;;;;9.25;9.25;;;;;8.94;86.39;100529.41;5038916;28;45564;-70
2022/12/21 08:12:43;;;;;;;;;11.25;11.25;;;;;8.93;86.84;100526.84;5038843;28;46022;-69
2022/12/21 08:15:08;;;;;;;;;11.75;11.75;;;;;8.97;86.54;100528.47;5019257;28;45273;-69
2022/12/21 08:17:34;;;;;;;;;11.00;11.00;;;;;8.96;86.42;100518.88;5021824;28;45622;-73
2022/12/21 08:19:59;;;;;;;;;9.75;9.75;;;;;9.00;86.64;100528.34;5039842;28;45340;-71
2022/12/21 08:22:25;;;;;;;;;9.25;9.25;;;;;9.01;86.23;100528.31;5028684;28;45540;-70
2022/12/21 08:24:51;;;;;;;;;7.75;7.75;;;;;9.04;86.67;100519.47;5036655;28;45505;-74
2022/12/21 08:27:17;;;;;;;;;12.25;12.25;;;;;9.01;86.83;100516.94;5036445;28;45171;-72
2022/12/21 08:29:43;;;;;;;;;9.00;9.00;;;;;9.07;86.53;100521.97;5038152;28;45431;-75
2022/12/21 08:32:08;;;;;;;;;10.75;10.75;;;;;9.10;86.41;100524.50;5038320;28;45476;-77
2022/12/21 08:34:34;;;;;;;;;14.00;14.00;;;;;9.14;86.63;100530.50;5038332;28;45330;-77
2022/12/21 08:37:00;;;;;;;;;9.25;9.25;;;;;9.20;86.27;100523.25;5038100;28;45414;-73
2022/12/21 08:39:28;;;;;;;;;8.50;8.50;;;;;9.23;86.10;100514.44;5037921;28;45491;-74
2022/12/21 08:41:53;;;;;;;;;11.25;11.25;;;;;8.94;86.06;100469.06;5038665;28;45496;-73
2022/12/21 08:44:18;;;;;;;;;9.50;9.50;;;;;9.23;86.05;100509.19;5040439;28;45415;-71
2022/12/21 08:46:44;;;;;;;;;9.25;9.25;;;;;9.34;85.90;100524.53;5038211;28;45283;-74
2022/12/21 08:49:10;;;;;;;;;11.50;11.00;;;;;9.38;85.45;100523.50;5038147;28;45903;-75
2022/12/21 08:51:37;;;;;;;;;11.50;11.50;;;;;9.42;85.66;100529.53;5038771;28;45361;-73
2022/12/21 08:54:03;;;;;;;;;10.75;10.75;;;;;9.46;85.57;100531.97;5037421;28;45231;-75
2022/12/21 08:56:29;;;;;;;;;13.50;13.50;;;;;9.45;85.39;100529.41;5020066;28;45341;-74
2022/12/21 08:58:54;;;;;;;;;9.75;9.00;;;;;9.48;84.93;100530.13;5037762;28;46111;-76
2022/12/21 09:01:21;;;;;;;;;9.25;9.25;;;;;9.52;84.74;100530.91;5037402;28;45417;-78
2022/12/21 09:03:46;;;;;;;;;9.25;9.25;;;;;9.53;84.74;100521.22;5037326;28;45446;-74
2022/12/21 09:06:12;;;;;;;;;8.25;8.25;;;;;9.55;84.75;100517.66;5038943;28;45508;-76
2022/12/21 09:08:37;;;;;;;;;9.00;9.00;;;;;9.55;84.98;100508.94;5039787;28;46102;-73
2022/12/21 09:11:05;;;;;;;;;8.00;8.00;;;;;9.58;84.71;100512.28;5038556;28;45327;-75
2022/12/21 09:13:31;;;;;;;;;12.00;12.00;;;;;9.60;84.99;100522.75;5020015;28;45431;-74
2022/12/21 09:15:56;;;;;;;;;9.25;9.25;;;;;9.52;84.68;100511.66;5036860;28;45480;-75
2022/12/21 09:18:22;;;;;;;;;19.50;19.50;;;;;9.67;85.02;100528.63;5037143;28;46377;-71
2022/12/21 09:20:47;;;;;;;;;10.25;10.25;;;;;9.73;85.01;100529.25;5037210;28;45217;-76
2022/12/21 09:23:13;;;;;;;;;11.75;11.50;;;;;9.77;84.57;100524.72;5037284;28;45265;-74
2022/12/21 09:25:39;;;;;;;;;11.00;11.00;;;;;9.82;84.82;100514.91;5037373;28;45490;-76
2022/12/21 09:28:05;;;;;;;;;14.50;14.50;;;;;9.84;84.37;100518.31;5036741;28;46106;-73
2022/12/21 09:30:30;;;;;;;;;13.50;13.50;;;;;9.86;84.48;100523.53;5037423;28;45421;-74
2022/12/21 09:32:56;;;;;;;;;15.75;15.75;;;;;9.84;84.10;100514.84;5038992;28;45478;-75
2022/12/21 09:35:22;;;;;;;;;22.50;22.00;;;;;9.80;84.20;100506.22;5020152;28;45323;-74
2022/12/21 09:37:47;;;;;;;;;17.25;17.00;;;;;9.83;84.07;100510.53;5037268;28;46316;-73
2022/12/21 09:40:15;;;;;;;;;16.50;15.75;;;;;9.88;83.88;100526.97;5038262;28;45525;-75
2022/12/21 09:43:15;;;;;;;;;11.50;11.50;;;;;9.83;83.75;100542.03;5037333;28;45408;-74
2022/12/21 09:46:16;;;;;;;;;9.75;9.75;;;;;9.89;83.93;100545.28;5037201;28;45421;-73
2022/12/21 09:48:52;;;;;;;;;10.25;10.25;;;;;9.92;83.96;100534.66;5018844;28;45472;-74
2022/12/21 09:51:24;;;;;;;;;14.00;14.00;;;;;9.96;84.44;100545.03;5036418;28;45280;-73
2022/12/21 09:53:57;;;;;;;;;10.00;10.00;;;;;9.96;84.07;100535.41;5036660;28;45238;-72
2022/12/21 09:56:25;;;;;;;;;18.25;18.25;;;;;9.97;84.22;100531.84;5036832;28;45349;-71
2022/12/21 09:58:53;;;;;;;;;14.75;14.50;;;;;10.06;83.81;100557.78;5036839;28;46297;-72
2022/12/21 10:01:28;;;;;;;;;27.00;26.25;;;;;10.09;83.86;100551.56;5036532;28;45440;-76
2022/12/21 10:04:32;;;;;;;;;13.00;13.00;;;;;10.16;83.98;100550.41;5036423;28;45312;-76
2022/12/21 10:07:21;;;;;;;;;9.00;9.00;;;;;10.19;83.88;100558.19;5036527;28;45207;-75
2022/12/21 10:10:15;;;;;;;;;11.50;11.25;;;;;10.23;83.53;100558.91;5035865;28;46475;-74
2022/12/21 10:13:11;;;;;;;;;13.75;13.75;;;;;10.28;83.64;100556.94;5036270;28;45273;-74
2022/12/21 10:15:55;;;;;;;;;9.75;9.75;;;;;10.31;83.55;100563.88;5036070;28;45436;-75
2022/12/21 10:18:38;;;;;;;;;9.00;9.00;;;;;10.37;83.08;100558.38;5036636;28;45289;-75
2022/12/21 10:21:46;;;;;;;;;15.75;15.75;;;;;10.43;83.06;100559.91;5018497;28;47149;-74
2022/12/21 10:24:24;;;;;;;;;9.50;9.50;;;;;10.43;82.61;100552.91;5037147;28;45499;-77
2022/12/21 10:26:55;;;;;;;;;10.25;10.25;;;;;10.46;82.84;100539.63;5036593;28;45504;-76
2022/12/21 10:29:32;;;;;;;;;11.25;11.25;;;;;10.51;82.23;100534.16;5036622;28;45233;-76
2022/12/21 10:31:59;;;;;;;;;9.00;9.00;;;;;10.53;82.53;100532.31;5036269;28;46100;-75
2022/12/21 10:34:32;;;;;;;;;6.00;6.00;;;;;10.53;82.47;100519.16;5035959;28;45349;-73
2022/12/21 10:37:18;;;;;;;;;10.00;10.00;;;;;10.59;82.44;100524.19;5036085;28;45427;-74
2022/12/21 10:39:50;;;;;;;;;16.50;16.50;;;;;10.63;82.34;100520.53;5035388;28;45282;-73
2022/12/21 10:42:20;;;;;;;;;10.25;10.25;;;;;10.70;82.29;100515.00;5035570;28;45257;-74
2022/12/21 10:44:47;;;;;;;;;6.75;6.75;;;;;10.73;81.91;100514.88;5037445;28;45441;-73
2022/12/21 10:47:18;;;;;;;;;9.75;9.75;;;;;10.79;81.73;100504.09;5036351;28;45329;-74
2022/12/21 10:50:01;;;;;;;;;8.75;8.25;;;;;10.82;81.60;100496.06;5035985;28;45395;-74
2022/12/21 10:52:57;;;;;;;;;9.00;9.00;;;;;10.85;81.11;100490.69;5035537;28;46214;-73
2022/12/21 10:55:24;;;;;;;;;5.75;5.75;;;;;10.86;81.25;100479.25;5033543;28;45545;-75
2022/12/21 10:57:54;;;;;;;;;11.00;11.00;;;;;10.87;80.85;100483.56;5035594;28;45265;-78
2022/12/21 11:00:23;;;;;;;;;13.50;12.50;;;;;10.84;80.77;100478.44;5035627;28;45185;-76
2022/12/21 11:02:52;;;;;;;;;11.50;11.50;;;;;10.87;81.18;100470.41;5035133;28;45471;-76
2022/12/21 11:05:26;;;;;;;;;14.50;14.50;;;;;10.92;81.22;100484.22;5035468;28;45247;-75
2022/12/21 11:07:51;;;;;;;;;9.75;9.75;;;;;10.93;80.86;100464.88;5035011;28;45342;-74
2022/12/21 11:10:35;;;;;;;;;7.50;7.50;;;;;11.01;81.13;100461.06;5036127;28;45560;-75
2022/12/21 11:13:04;;;;;;;;;12.50;12.50;;;;;11.06;80.60;100459.09;5039029;28;45366;-78
2022/12/21 11:15:30;;;;;;;;;8.50;8.50;;;;;11.08;80.24;100463.34;5036421;28;45360;-79
2022/12/21 11:17:55;;;;;;;;;12.00;12.00;;;;;11.03;80.52;100451.31;5035814;28;45316;-73
2022/12/21 11:20:21;;;;;;;;;21.75;21.75;;;;;11.07;80.20;100452.91;5036764;28;45549;-78
2022/12/21 11:22:50;;;;;;;;;13.25;12.25;;;;;11.16;80.79;100447.22;5035759;28;46650;-73
2022/12/21 11:25:19;;;;;;;;;13.00;13.00;;;;;11.19;80.21;100449.72;5035589;28;45285;-72
2022/12/21 11:27:50;;;;;;;;;11.25;11.25;;;;;11.20;80.17;100433.00;5035312;28;45345;-73
2022/12/21 11:30:49;;;;;;;;;12.50;12.50;;;;;11.26;79.99;100431.88;5035931;28;45398;-74
2022/12/21 11:33:19;;;;;;;;;12.00;12.00;;;;;11.32;79.40;100443.91;5035706;28;46143;-77
2022/12/21 11:36:14;;;;;;;;;11.50;11.50;;;;;11.31;79.13;100439.56;5018106;28;45475;-77
2022/12/21 11:38:40;;;;;;;;;13.25;13.25;;;;;11.34;79.42;100447.31;5035760;28;45310;-75
2022/12/21 11:41:26;;;;;;;;;22.50;22.50;;;;;11.37;79.52;100426.09;5017278;28;45275;-74
2022/12/21 11:43:53;;;;;;;;;8.25;8.25;;;;;11.39;79.23;100419.84;5034725;28;45436;-75